sensor_id;sensor_type;location;lat;lon;timestamp;pressure;altitude;pressure_sealevel;temperature;humidity
47636;BME280;33364;50.766;15.338;2023-12-28T00:01:19;95177.50;;;1.46;92.40
47636;BME280;33364;50.766;15.338;2023-12-28T00:03:45;95176.13;;;1.43;91.68
47636;BME280;33364;50.766;15.338;2023-12-28T00:06:11;95173.38;;;1.38;91.48
47636;BME280;33364;50.766;15.338;2023-12-28T00:08:37;95174.09;;;1.45;92.46
47636;BME280;33364;50.766;15.338;2023-12-28T00:11:03;95165.50;;;1.45;91.97
47636;BME280;33364;50.766;15.338;2023-12-28T00:13:28;95175.78;;;1.40;91.92
47636;BME280;33364;50.766;15.338;2023-12-28T00:15:54;95180.28;;;1.33;91.20
47636;BME280;33364;50.766;15.338;2023-12-28T00:18:20;95184.47;;;1.34;92.39
47636;BME280;33364;50.766;15.338;2023-12-28T00:20:45;95173.06;;;1.35;92.33
47636;BME280;33364;50.766;15.338;2023-12-28T00:23:11;95166.72;;;1.31;92.43
47636;BME280;33364;50.766;15.338;2023-12-28T00:25:37;95168.13;;;1.15;91.54
47636;BME280;33364;50.766;15.338;2023-12-28T00:28:03;95166.00;;;1.23;91.49
47636;BME280;33364;50.766;15.338;2023-12-28T00:30:29;95159.59;;;1.26;91.18
47636;BME280;33364;50.766;15.338;2023-12-28T00:32:55;95165.03;;;1.36;91.73
47636;BME280;33364;50.766;15.338;2023-12-28T00:35:21;95165.34;;;1.28;91.60
47636;BME280;33364;50.766;15.338;2023-12-28T00:37:48;95159.44;;;1.21;90.93
47636;BME280;33364;50.766;15.338;2023-12-28T00:40:13;95152.78;;;1.25;91.88
47636;BME280;33364;50.766;15.338;2023-12-28T00:42:39;95146.28;;;1.04;91.92
47636;BME280;33364;50.766;15.338;2023-12-28T00:45:07;95148.34;;;1.14;92.29
47636;BME280;33364;50.766;15.338;2023-12-28T00:47:33;95144.06;;;1.19;92.05
47636;BME280;33364;50.766;15.338;2023-12-28T00:49:59;95148.22;;;1.09;92.54
47636;BME280;33364;50.766;15.338;2023-12-28T00:52:25;95137.41;;;1.23;92.95
47636;BME280;33364;50.766;15.338;2023-12-28T00:54:50;95152.09;;;1.18;91.45
47636;BME280;33364;50.766;15.338;2023-12-28T00:57:16;95151.41;;;1.11;90.80
47636;BME280;33364;50.766;15.338;2023-12-28T00:59:42;95149.19;;;1.26;92.06
47636;BME280;33364;50.766;15.338;2023-12-28T01:02:09;95148.31;;;1.02;90.79
47636;BME280;33364;50.766;15.338;2023-12-28T01:04:35;95147.06;;;1.05;91.05
47636;BME280;33364;50.766;15.338;2023-12-28T01:07:01;95150.94;;;1.14;91.64
47636;BME280;33364;50.766;15.338;2023-12-28T01:09:30;95156.06;;;1.20;91.86
47636;BME280;33364;50.766;15.338;2023-12-28T01:11:58;95157.03;;;1.08;91.20
47636;BME280;33364;50.766;15.338;2023-12-28T01:14:24;95149.56;;;1.11;91.21
47636;BME280;33364;50.766;15.338;2023-12-28T01:16:50;95149.06;;;1.21;91.23
47636;BME280;33364;50.766;15.338;2023-12-28T01:19:16;95142.13;;;1.15;90.52
47636;BME280;33364;50.766;15.338;2023-12-28T01:21:42;95136.09;;;1.03;90.12
47636;BME280;33364;50.766;15.338;2023-12-28T01:24:07;95147.06;;;1.05;90.83
47636;BME280;33364;50.766;15.338;2023-12-28T01:26:33;95144.41;;;1.23;91.57
47636;BME280;33364;50.766;15.338;2023-12-28T01:29:00;95158.50;;;1.04;90.63
47636;BME280;33364;50.766;15.338;2023-12-28T01:31:29;95146.75;;;1.13;91.41
47636;BME280;33364;50.766;15.338;2023-12-28T01:33:54;95145.63;;;1.09;90.93
47636;BME280;33364;50.766;15.338;2023-12-28T01:36:21;95148.00;;;1.22;92.10
47636;BME280;33364;50.766;15.338;2023-12-28T01:38:47;95141.69;;;1.18;91.80
47636;BME280;33364;50.766;15.338;2023-12-28T01:41:14;95151.81;;;1.08;91.22
47636;BME280;33364;50.766;15.338;2023-12-28T01:43:43;95157.03;;;1.08;91.45
47636;BME280;33364;50.766;15.338;2023-12-28T01:46:16;95129.34;;;1.13;91.42
47636;BME280;33364;50.766;15.338;2023-12-28T01:48:44;95134.19;;;1.10;91.00
47636;BME280;33364;50.766;15.338;2023-12-28T01:51:12;95118.84;;;1.20;91.73
47636;BME280;33364;50.766;15.338;2023-12-28T01:53:39;95142.59;;;1.23;92.11
47636;BME280;33364;50.766;15.338;2023-12-28T01:56:06;95139.56;;;1.26;92.58
47636;BME280;33364;50.766;15.338;2023-12-28T01:58:33;95142.81;;;1.22;91.88
47636;BME280;33364;50.766;15.338;2023-12-28T02:01:00;95145.47;;;1.45;93.69
47636;BME280;33364;50.766;15.338;2023-12-28T02:03:27;95148.28;;;1.32;92.33
47636;BME280;33364;50.766;15.338;2023-12-28T02:05:53;95131.53;;;1.28;92.13
47636;BME280;33364;50.766;15.338;2023-12-28T02:08:19;95139.06;;;1.18;92.37
47636;BME280;33364;50.766;15.338;2023-12-28T02:10:45;95131.72;;;1.15;92.59
47636;BME280;33364;50.766;15.338;2023-12-28T02:13:11;95141.50;;;0.90;92.20
47636;BME280;33364;50.766;15.338;2023-12-28T02:15:37;95141.84;;;0.93;92.42
47636;BME280;33364;50.766;15.338;2023-12-28T02:18:11;95131.66;;;0.92;92.85
47636;BME280;33364;50.766;15.338;2023-12-28T02:20:43;95125.78;;;0.96;93.58
47636;BME280;33364;50.766;15.338;2023-12-28T02:23:09;95114.28;;;1.04;93.34
47636;BME280;33364;50.766;15.338;2023-12-28T02:25:36;95115.88;;;0.75;92.10
47636;BME280;33364;50.766;15.338;2023-12-28T02:28:02;95108.91;;;0.87;92.87
47636;BME280;33364;50.766;15.338;2023-12-28T02:30:28;95097.97;;;0.97;93.09
47636;BME280;33364;50.766;15.338;2023-12-28T02:32:59;95094.91;;;0.88;92.57
47636;BME280;33364;50.766;15.338;2023-12-28T02:35:37;95097.22;;;1.08;93.80
47636;BME280;33364;50.766;15.338;2023-12-28T02:38:08;95092.69;;;1.03;93.94
47636;BME280;33364;50.766;15.338;2023-12-28T02:40:39;95084.31;;;1.01;93.52
47636;BME280;33364;50.766;15.338;2023-12-28T02:43:09;95078.53;;;0.88;92.64
47636;BME280;33364;50.766;15.338;2023-12-28T02:45:36;95084.56;;;0.70;91.75
47636;BME280;33364;50.766;15.338;2023-12-28T02:48:03;95081.69;;;0.90;93.10
47636;BME280;33364;50.766;15.338;2023-12-28T02:50:29;95094.91;;;0.88;93.64
47636;BME280;33364;50.766;15.338;2023-12-28T02:52:56;95086.41;;;0.81;93.02
47636;BME280;33364;50.766;15.338;2023-12-28T02:55:23;95078.97;;;0.84;92.61
47636;BME280;33364;50.766;15.338;2023-12-28T02:57:50;95082.84;;;0.94;93.40
47636;BME280;33364;50.766;15.338;2023-12-28T03:00:16;95082.59;;;0.83;92.98
47636;BME280;33364;50.766;15.338;2023-12-28T03:02:42;95092.19;;;0.83;93.21
47636;BME280;33364;50.766;15.338;2023-12-28T03:05:09;95105.22;;;0.95;94.43
47636;BME280;33364;50.766;15.338;2023-12-28T03:07:35;95080.22;;;0.94;93.99
47636;BME280;33364;50.766;15.338;2023-12-28T03:10:02;95097.00;;;0.79;92.95
47636;BME280;33364;50.766;15.338;2023-12-28T03:12:29;95081.13;;;0.88;93.37
47636;BME280;33364;50.766;15.338;2023-12-28T03:14:56;95085.66;;;0.92;93.94
47636;BME280;33364;50.766;15.338;2023-12-28T03:17:21;95076.50;;;0.90;93.74
47636;BME280;33364;50.766;15.338;2023-12-28T03:19:47;95086.72;;;0.73;92.68
47636;BME280;33364;50.766;15.338;2023-12-28T03:22:13;95067.88;;;0.77;92.65
47636;BME280;33364;50.766;15.338;2023-12-28T03:24:39;95067.69;;;0.61;92.53
47636;BME280;33364;50.766;15.338;2023-12-28T03:27:06;95058.81;;;0.68;92.74
47636;BME280;33364;50.766;15.338;2023-12-28T03:29:33;95069.69;;;0.47;92.30
47636;BME280;33364;50.766;15.338;2023-12-28T03:31:59;95067.03;;;0.65;92.71
47636;BME280;33364;50.766;15.338;2023-12-28T03:34:25;95055.16;;;0.69;93.10
47636;BME280;33364;50.766;15.338;2023-12-28T03:36:55;95070.63;;;0.53;92.82
47636;BME280;33364;50.766;15.338;2023-12-28T03:39:23;95058.84;;;0.50;93.29
47636;BME280;33364;50.766;15.338;2023-12-28T03:41:49;95057.31;;;0.61;93.82
47636;BME280;33364;50.766;15.338;2023-12-28T03:44:15;95070.88;;;0.63;94.08
47636;BME280;33364;50.766;15.338;2023-12-28T03:46:41;95081.28;;;0.63;93.78
47636;BME280;33364;50.766;15.338;2023-12-28T03:49:07;95078.13;;;0.72;93.33
47636;BME280;33364;50.766;15.338;2023-12-28T03:51:32;95074.78;;;0.83;94.96
47636;BME280;33364;50.766;15.338;2023-12-28T03:53:58;95086.22;;;0.64;93.39
47636;BME280;33364;50.766;15.338;2023-12-28T03:56:25;95087.94;;;1.00;94.22
47636;BME280;33364;50.766;15.338;2023-12-28T03:58:52;95088.78;;;0.82;93.63
47636;BME280;33364;50.766;15.338;2023-12-28T04:01:19;95089.66;;;0.76;93.23
47636;BME280;33364;50.766;15.338;2023-12-28T04:03:45;95087.94;;;0.70;92.70
47636;BME280;33364;50.766;15.338;2023-12-28T04:06:11;95092.72;;;0.85;94.06
47636;BME280;33364;50.766;15.338;2023-12-28T04:08:39;95105.13;;;0.71;93.04
47636;BME280;33364;50.766;15.338;2023-12-28T04:11:05;95101.78;;;0.82;93.64
47636;BME280;33364;50.766;15.338;2023-12-28T04:13:31;95101.53;;;0.72;92.93
47636;BME280;33364;50.766;15.338;2023-12-28T04:15:56;95079.59;;;0.68;92.43
47636;BME280;33364;50.766;15.338;2023-12-28T04:18:23;95077.88;;;0.62;92.49
47636;BME280;33364;50.766;15.338;2023-12-28T04:20:48;95085.53;;;0.57;92.87
47636;BME280;33364;50.766;15.338;2023-12-28T04:23:15;95080.72;;;0.72;93.61
47636;BME280;33364;50.766;15.338;2023-12-28T04:25:41;95083.50;;;0.59;93.22
47636;BME280;33364;50.766;15.338;2023-12-28T04:28:07;95078.00;;;0.67;93.77
47636;BME280;33364;50.766;15.338;2023-12-28T04:30:33;95079.31;;;0.58;93.19
47636;BME280;33364;50.766;15.338;2023-12-28T04:33:00;95078.69;;;0.45;92.48
47636;BME280;33364;50.766;15.338;2023-12-28T04:35:26;95086.19;;;0.53;93.19
47636;BME280;33364;50.766;15.338;2023-12-28T04:37:52;95069.44;;;0.49;92.94
47636;BME280;33364;50.766;15.338;2023-12-28T04:40:17;95073.50;;;0.45;92.82
47636;BME280;33364;50.766;15.338;2023-12-28T04:42:43;95064.63;;;0.52;93.06
47636;BME280;33364;50.766;15.338;2023-12-28T04:45:09;95064.16;;;0.55;92.62
47636;BME280;33364;50.766;15.338;2023-12-28T04:47:36;95058.25;;;0.48;92.41
47636;BME280;33364;50.766;15.338;2023-12-28T04:50:04;95064.91;;;0.44;92.08
47636;BME280;33364;50.766;15.338;2023-12-28T04:52:30;95060.56;;;0.56;92.47
47636;BME280;33364;50.766;15.338;2023-12-28T04:54:56;95075.38;;;0.37;91.37
47636;BME280;33364;50.766;15.338;2023-12-28T04:57:22;95083.97;;;0.38;91.96
47636;BME280;33364;50.766;15.338;2023-12-28T04:59:51;95083.88;;;0.45;92.59
47636;BME280;33364;50.766;15.338;2023-12-28T05:02:17;95081.50;;;0.43;92.64
47636;BME280;33364;50.766;15.338;2023-12-28T05:04:43;95087.94;;;0.40;92.25
47636;BME280;33364;50.766;15.338;2023-12-28T05:07:09;95093.88;;;0.59;93.61
47636;BME280;33364;50.766;15.338;2023-12-28T05:09:35;95081.91;;;0.58;93.14
47636;BME280;33364;50.766;15.338;2023-12-28T05:12:02;95090.00;;;0.50;92.40
47636;BME280;33364;50.766;15.338;2023-12-28T05:14:28;95091.75;;;0.38;91.92
47636;BME280;33364;50.766;15.338;2023-12-28T05:16:54;95098.06;;;0.30;92.49
47636;BME280;33364;50.766;15.338;2023-12-28T05:19:19;95099.69;;;0.43;93.74
47636;BME280;33364;50.766;15.338;2023-12-28T05:21:45;95098.41;;;0.34;92.91
47636;BME280;33364;50.766;15.338;2023-12-28T05:24:12;95107.78;;;0.35;93.16
47636;BME280;33364;50.766;15.338;2023-12-28T05:26:38;95105.25;;;0.28;93.08
47636;BME280;33364;50.766;15.338;2023-12-28T05:29:04;95100.72;;;0.24;92.72
47636;BME280;33364;50.766;15.338;2023-12-28T05:31:30;95093.34;;;0.39;93.81
47636;BME280;33364;50.766;15.338;2023-12-28T05:33:55;95088.06;;;0.46;93.57
47636;BME280;33364;50.766;15.338;2023-12-28T05:36:24;95078.34;;;0.41;93.23
47636;BME280;33364;50.766;15.338;2023-12-28T05:38:50;95090.88;;;0.44;93.09
47636;BME280;33364;50.766;15.338;2023-12-28T05:41:16;95083.72;;;0.58;93.47
47636;BME280;33364;50.766;15.338;2023-12-28T05:43:42;95080.63;;;0.49;92.51
47636;BME280;33364;50.766;15.338;2023-12-28T05:46:08;95077.03;;;0.50;92.57
47636;BME280;33364;50.766;15.338;2023-12-28T05:48:34;95083.53;;;0.41;92.01
47636;BME280;33364;50.766;15.338;2023-12-28T05:51:00;95068.31;;;0.45;92.27
47636;BME280;33364;50.766;15.338;2023-12-28T05:53:26;95067.97;;;0.41;92.40
47636;BME280;33364;50.766;15.338;2023-12-28T05:55:53;95061.66;;;0.49;92.58
47636;BME280;33364;50.766;15.338;2023-12-28T05:58:19;95075.31;;;0.44;92.27
47636;BME280;33364;50.766;15.338;2023-12-28T06:00:45;95084.50;;;0.58;92.93
47636;BME280;33364;50.766;15.338;2023-12-28T06:03:14;95096.28;;;0.42;92.57
47636;BME280;33364;50.766;15.338;2023-12-28T06:05:40;95108.66;;;0.47;92.14
47636;BME280;33364;50.766;15.338;2023-12-28T06:08:06;95103.72;;;0.57;92.68
47636;BME280;33364;50.766;15.338;2023-12-28T06:10:32;95101.53;;;0.54;92.43
47636;BME280;33364;50.766;15.338;2023-12-28T06:12:58;95104.53;;;0.69;92.96
47636;BME280;33364;50.766;15.338;2023-12-28T06:15:24;95103.41;;;0.65;92.34
47636;BME280;33364;50.766;15.338;2023-12-28T06:17:49;95096.75;;;0.69;92.40
47636;BME280;33364;50.766;15.338;2023-12-28T06:20:15;95103.41;;;0.65;91.80
47636;BME280;33364;50.766;15.338;2023-12-28T06:22:41;95099.59;;;0.68;92.42
47636;BME280;33364;50.766;15.338;2023-12-28T06:25:07;95106.63;;;0.79;92.67
47636;BME280;33364;50.766;15.338;2023-12-28T06:27:33;95106.53;;;0.85;92.41
47636;BME280;33364;50.766;15.338;2023-12-28T06:29:59;95101.31;;;0.85;93.07
47636;BME280;33364;50.766;15.338;2023-12-28T06:32:24;95078.19;;;0.96;93.95
47636;BME280;33364;50.766;15.338;2023-12-28T06:34:50;95083.72;;;0.88;92.88
47636;BME280;33364;50.766;15.338;2023-12-28T06:37:16;95073.13;;;1.01;92.91
47636;BME280;33364;50.766;15.338;2023-12-28T06:39:42;95063.75;;;1.11;93.02
47636;BME280;33364;50.766;15.338;2023-12-28T06:42:07;95070.91;;;1.16;92.75
47636;BME280;33364;50.766;15.338;2023-12-28T06:44:33;95080.50;;;1.15;92.79
47636;BME280;33364;50.766;15.338;2023-12-28T06:46:59;95073.38;;;1.11;92.70
47636;BME280;33364;50.766;15.338;2023-12-28T06:49:25;95082.19;;;1.10;92.62
47636;BME280;33364;50.766;15.338;2023-12-28T06:51:51;95083.22;;;1.20;92.74
47636;BME280;33364;50.766;15.338;2023-12-28T06:54:17;95093.97;;;1.24;92.61
47636;BME280;33364;50.766;15.338;2023-12-28T06:56:43;95093.41;;;1.22;92.57
47636;BME280;33364;50.766;15.338;2023-12-28T06:59:09;95086.63;;;1.33;93.58
47636;BME280;33364;50.766;15.338;2023-12-28T07:01:38;95098.06;;;1.43;93.45
47636;BME280;33364;50.766;15.338;2023-12-28T07:04:04;95090.59;;;1.35;92.88
47636;BME280;33364;50.766;15.338;2023-12-28T07:06:30;95099.31;;;1.41;93.17
47636;BME280;33364;50.766;15.338;2023-12-28T07:08:56;95107.25;;;1.46;92.99
47636;BME280;33364;50.766;15.338;2023-12-28T07:11:22;95110.84;;;1.45;92.34
47636;BME280;33364;50.766;15.338;2023-12-28T07:13:48;95108.03;;;1.46;92.82
47636;BME280;33364;50.766;15.338;2023-12-28T07:16:14;95113.03;;;1.48;92.78
47636;BME280;33364;50.766;15.338;2023-12-28T07:18:41;95097.53;;;1.53;92.60
47636;BME280;33364;50.766;15.338;2023-12-28T07:21:07;95103.72;;;1.40;92.71
47636;BME280;33364;50.766;15.338;2023-12-28T07:23:36;95105.97;;;1.48;92.79
47636;BME280;33364;50.766;15.338;2023-12-28T07:26:02;95119.81;;;1.60;92.89
47636;BME280;33364;50.766;15.338;2023-12-28T07:28:28;95106.78;;;1.60;92.39
47636;BME280;33364;50.766;15.338;2023-12-28T07:30:53;95111.44;;;1.58;93.08
47636;BME280;33364;50.766;15.338;2023-12-28T07:33:20;95115.63;;;1.59;93.06
47636;BME280;33364;50.766;15.338;2023-12-28T07:35:45;95126.03;;;1.71;92.99
47636;BME280;33364;50.766;15.338;2023-12-28T07:38:11;95117.22;;;1.72;92.76
47636;BME280;33364;50.766;15.338;2023-12-28T07:40:37;95127.84;;;1.70;93.01
47636;BME280;33364;50.766;15.338;2023-12-28T07:43:03;95127.28;;;1.80;93.11
47636;BME280;33364;50.766;15.338;2023-12-28T07:45:29;95129.66;;;1.70;92.59
47636;BME280;33364;50.766;15.338;2023-12-28T07:47:56;95118.91;;;1.78;93.06
47636;BME280;33364;50.766;15.338;2023-12-28T07:50:22;95127.63;;;1.84;93.20
47636;BME280;33364;50.766;15.338;2023-12-28T07:52:49;95131.72;;;1.80;92.64
47636;BME280;33364;50.766;15.338;2023-12-28T07:55:15;95116.75;;;1.87;93.31
47636;BME280;33364;50.766;15.338;2023-12-28T07:57:41;95120.38;;;1.86;92.85
47636;BME280;33364;50.766;15.338;2023-12-28T08:00:07;95123.44;;;1.83;92.92
47636;BME280;33364;50.766;15.338;2023-12-28T08:02:33;95122.53;;;1.89;92.74
47636;BME280;33364;50.766;15.338;2023-12-28T08:04:59;95135.91;;;1.92;93.03
47636;BME280;33364;50.766;15.338;2023-12-28T08:07:26;95135.00;;;1.98;93.01
47636;BME280;33364;50.766;15.338;2023-12-28T08:09:51;95132.84;;;1.95;93.12
47636;BME280;33364;50.766;15.338;2023-12-28T08:12:17;95138.03;;;2.19;94.32
47636;BME280;33364;50.766;15.338;2023-12-28T08:14:46;95147.44;;;2.31;94.43
47636;BME280;33364;50.766;15.338;2023-12-28T08:17:12;95141.41;;;2.31;93.76
47636;BME280;33364;50.766;15.338;2023-12-28T08:19:38;95143.81;;;2.32;93.69
47636;BME280;33364;50.766;15.338;2023-12-28T08:22:04;95149.91;;;2.38;93.48
47636;BME280;33364;50.766;15.338;2023-12-28T08:24:30;95143.34;;;2.35;93.00
47636;BME280;33364;50.766;15.338;2023-12-28T08:26:56;95153.44;;;2.32;92.72
47636;BME280;33364;50.766;15.338;2023-12-28T08:29:26;95165.78;;;2.36;93.10
47636;BME280;33364;50.766;15.338;2023-12-28T08:31:52;95164.97;;;2.36;92.81
47636;BME280;33364;50.766;15.338;2023-12-28T08:34:18;95164.50;;;2.39;93.34
47636;BME280;33364;50.766;15.338;2023-12-28T08:36:44;95147.03;;;2.51;93.51
47636;BME280;33364;50.766;15.338;2023-12-28T08:39:10;95150.22;;;2.53;93.28
47636;BME280;33364;50.766;15.338;2023-12-28T08:41:36;95162.66;;;2.63;93.63
47636;BME280;33364;50.766;15.338;2023-12-28T08:44:01;95174.91;;;2.50;92.74
47636;BME280;33364;50.766;15.338;2023-12-28T08:46:27;95168.47;;;2.53;92.85
47636;BME280;33364;50.766;15.338;2023-12-28T08:48:54;95174.38;;;2.48;93.00
47636;BME280;33364;50.766;15.338;2023-12-28T08:51:20;95164.69;;;2.61;93.83
47636;BME280;33364;50.766;15.338;2023-12-28T08:53:46;95153.34;;;2.67;93.61
47636;BME280;33364;50.766;15.338;2023-12-28T08:56:15;95148.94;;;2.67;93.42
47636;BME280;33364;50.766;15.338;2023-12-28T08:58:41;95130.91;;;2.66;92.84
47636;BME280;33364;50.766;15.338;2023-12-28T09:01:07;95140.91;;;2.57;92.62
47636;BME280;33364;50.766;15.338;2023-12-28T09:03:33;95169.22;;;2.65;93.04
47636;BME280;33364;50.766;15.338;2023-12-28T09:05:59;95159.13;;;2.69;93.46
47636;BME280;33364;50.766;15.338;2023-12-28T09:08:25;95156.63;;;2.74;93.49
47636;BME280;33364;50.766;15.338;2023-12-28T09:10:51;95136.81;;;3.01;94.49
47636;BME280;33364;50.766;15.338;2023-12-28T09:13:17;95139.09;;;2.86;93.65
47636;BME280;33364;50.766;15.338;2023-12-28T09:15:43;95131.06;;;2.87;92.95
47636;BME280;33364;50.766;15.338;2023-12-28T09:18:08;95119.59;;;2.88;92.96
47636;BME280;33364;50.766;15.338;2023-12-28T09:20:34;95122.16;;;3.00;92.82
47636;BME280;33364;50.766;15.338;2023-12-28T09:23:01;95128.88;;;2.96;92.73
47636;BME280;33364;50.766;15.338;2023-12-28T09:25:27;95137.72;;;2.95;92.65
47636;BME280;33364;50.766;15.338;2023-12-28T09:27:52;95148.28;;;2.88;92.59
47636;BME280;33364;50.766;15.338;2023-12-28T09:30:19;95160.50;;;3.00;93.46
47636;BME280;33364;50.766;15.338;2023-12-28T09:32:45;95171.72;;;3.00;93.68
47636;BME280;33364;50.766;15.338;2023-12-28T09:35:11;95156.09;;;3.00;93.53
47636;BME280;33364;50.766;15.338;2023-12-28T09:37:36;95132.44;;;2.90;92.96
47636;BME280;33364;50.766;15.338;2023-12-28T09:40:02;95142.94;;;2.95;93.16
47636;BME280;33364;50.766;15.338;2023-12-28T09:42:32;95140.31;;;3.07;93.49
47636;BME280;33364;50.766;15.338;2023-12-28T09:45:03;95134.28;;;3.06;93.18
47636;BME280;33364;50.766;15.338;2023-12-28T09:47:32;95132.22;;;3.08;93.71
47636;BME280;33364;50.766;15.338;2023-12-28T09:50:01;95139.34;;;3.13;94.18
47636;BME280;33364;50.766;15.338;2023-12-28T09:52:27;95134.13;;;3.13;93.81
47636;BME280;33364;50.766;15.338;2023-12-28T09:54:53;95142.38;;;3.21;93.89
47636;BME280;33364;50.766;15.338;2023-12-28T09:57:19;95138.56;;;3.29;94.11
47636;BME280;33364;50.766;15.338;2023-12-28T09:59:45;95134.56;;;3.38;94.39
47636;BME280;33364;50.766;15.338;2023-12-28T10:02:11;95125.78;;;3.27;93.61
47636;BME280;33364;50.766;15.338;2023-12-28T10:04:37;95120.09;;;3.30;93.65
47636;BME280;33364;50.766;15.338;2023-12-28T10:07:03;95124.53;;;3.47;94.39
47636;BME280;33364;50.766;15.338;2023-12-28T10:09:29;95134.66;;;3.60;95.40
47636;BME280;33364;50.766;15.338;2023-12-28T10:11:55;95150.16;;;3.50;94.93
47636;BME280;33364;50.766;15.338;2023-12-28T10:14:22;95142.59;;;3.20;93.69
47636;BME280;33364;50.766;15.338;2023-12-28T10:16:48;95142.41;;;3.38;94.31
47636;BME280;33364;50.766;15.338;2023-12-28T10:19:14;95136.88;;;3.51;94.42
47636;BME280;33364;50.766;15.338;2023-12-28T10:21:40;95129.13;;;3.56;94.56
47636;BME280;33364;50.766;15.338;2023-12-28T10:24:06;95113.44;;;3.39;93.37
47636;BME280;33364;50.766;15.338;2023-12-28T10:26:32;95122.72;;;3.64;94.18
47636;BME280;33364;50.766;15.338;2023-12-28T10:29:01;95125.16;;;3.70;94.01
47636;BME280;33364;50.766;15.338;2023-12-28T10:31:29;95130.63;;;3.69;93.63
47636;BME280;33364;50.766;15.338;2023-12-28T10:33:58;95120.13;;;3.64;92.85
47636;BME280;33364;50.766;15.338;2023-12-28T10:36:28;95109.63;;;3.97;94.21
47636;BME280;33364;50.766;15.338;2023-12-28T10:38:54;95098.00;;;3.88;92.55
47636;BME280;33364;50.766;15.338;2023-12-28T10:41:23;95107.81;;;3.98;92.50
47636;BME280;33364;50.766;15.338;2023-12-28T10:43:54;95104.47;;;4.02;92.39
47636;BME280;33364;50.766;15.338;2023-12-28T10:46:27;95104.53;;;4.07;91.94
47636;BME280;33364;50.766;15.338;2023-12-28T10:48:58;95099.91;;;3.76;90.63
47636;BME280;33364;50.766;15.338;2023-12-28T10:51:25;95107.81;;;3.81;91.19
47636;BME280;33364;50.766;15.338;2023-12-28T10:54:26;95100.69;;;3.76;91.36
47636;BME280;33364;50.766;15.338;2023-12-28T10:57:10;95095.56;;;3.65;90.74
47636;BME280;33364;50.766;15.338;2023-12-28T11:02:34;95108.22;;;3.90;90.99
47636;BME280;33364;50.766;15.338;2023-12-28T11:05:04;95109.97;;;3.84;90.70
47636;BME280;33364;50.766;15.338;2023-12-28T11:07:32;95113.22;;;3.91;90.92
47636;BME280;33364;50.766;15.338;2023-12-28T11:10:02;95109.47;;;3.87;90.44
47636;BME280;33364;50.766;15.338;2023-12-28T11:12:31;95119.78;;;3.77;89.24
47636;BME280;33364;50.766;15.338;2023-12-28T11:14:59;95110.66;;;3.96;90.26
47636;BME280;33364;50.766;15.338;2023-12-28T11:17:25;95104.75;;;3.84;89.17
47636;BME280;33364;50.766;15.338;2023-12-28T11:19:53;95099.97;;;3.81;89.75
47636;BME280;33364;50.766;15.338;2023-12-28T11:22:21;95102.34;;;3.99;91.17
47636;BME280;33364;50.766;15.338;2023-12-28T11:24:48;95098.78;;;4.05;91.18
47636;BME280;33364;50.766;15.338;2023-12-28T11:27:13;95098.53;;;4.07;91.41
47636;BME280;33364;50.766;15.338;2023-12-28T11:29:42;95094.50;;;4.38;93.34
47636;BME280;33364;50.766;15.338;2023-12-28T11:32:09;95091.03;;;4.32;92.32
47636;BME280;33364;50.766;15.338;2023-12-28T11:34:36;95096.34;;;4.20;91.27
47636;BME280;33364;50.766;15.338;2023-12-28T11:37:07;95099.94;;;4.14;91.22
47636;BME280;33364;50.766;15.338;2023-12-28T11:39:36;95091.69;;;4.22;91.68
47636;BME280;33364;50.766;15.338;2023-12-28T11:42:07;95098.75;;;4.44;93.51
47636;BME280;33364;50.766;15.338;2023-12-28T11:44:38;95087.06;;;4.30;91.19
47636;BME280;33364;50.766;15.338;2023-12-28T11:47:15;95085.25;;;4.52;92.69
47636;BME280;33364;50.766;15.338;2023-12-28T11:49:41;95079.59;;;4.60;92.69
47636;BME280;33364;50.766;15.338;2023-12-28T11:52:08;95084.56;;;4.61;92.10
47636;BME280;33364;50.766;15.338;2023-12-28T11:54:36;95092.97;;;4.63;92.13
47636;BME280;33364;50.766;15.338;2023-12-28T11:57:03;95094.91;;;4.73;92.67
47636;BME280;33364;50.766;15.338;2023-12-28T11:59:29;95093.31;;;4.72;92.45
47636;BME280;33364;50.766;15.338;2023-12-28T12:01:56;95084.88;;;4.43;89.54
47636;BME280;33364;50.766;15.338;2023-12-28T12:04:22;95077.91;;;4.27;88.93
47636;BME280;33364;50.766;15.338;2023-12-28T12:06:48;95072.53;;;4.17;89.62
47636;BME280;33364;50.766;15.338;2023-12-28T12:09:14;95070.94;;;4.16;89.83
47636;BME280;33364;50.766;15.338;2023-12-28T12:11:40;95072.41;;;4.07;89.71
47636;BME280;33364;50.766;15.338;2023-12-28T12:14:10;95082.47;;;3.98;89.88
47636;BME280;33364;50.766;15.338;2023-12-28T12:16:37;95071.16;;;3.93;89.89
47636;BME280;33364;50.766;15.338;2023-12-28T12:19:06;95076.72;;;3.96;90.21
47636;BME280;33364;50.766;15.338;2023-12-28T12:21:35;95074.72;;;3.87;89.93
47636;BME280;33364;50.766;15.338;2023-12-28T12:24:01;95072.50;;;3.95;90.15
47636;BME280;33364;50.766;15.338;2023-12-28T12:26:28;95069.09;;;3.95;90.41
47636;BME280;33364;50.766;15.338;2023-12-28T12:28:55;95057.84;;;3.94;91.04
47636;BME280;33364;50.766;15.338;2023-12-28T12:31:21;95057.56;;;3.91;90.70
47636;BME280;33364;50.766;15.338;2023-12-28T12:33:47;95060.56;;;3.82;90.13
47636;BME280;33364;50.766;15.338;2023-12-28T12:36:13;95046.38;;;3.95;90.79
47636;BME280;33364;50.766;15.338;2023-12-28T12:38:40;95047.22;;;3.62;89.90
47636;BME280;33364;50.766;15.338;2023-12-28T12:41:06;95041.16;;;3.57;91.54
47636;BME280;33364;50.766;15.338;2023-12-28T12:43:33;95055.63;;;3.64;91.77
47636;BME280;33364;50.766;15.338;2023-12-28T12:45:59;95049.69;;;3.69;91.84
47636;BME280;33364;50.766;15.338;2023-12-28T12:48:26;95048.72;;;3.75;91.88
47636;BME280;33364;50.766;15.338;2023-12-28T12:50:51;95046.81;;;3.70;91.50
47636;BME280;33364;50.766;15.338;2023-12-28T12:53:18;95047.66;;;3.76;91.35
47636;BME280;33364;50.766;15.338;2023-12-28T12:55:43;95052.59;;;3.72;90.61
47636;BME280;33364;50.766;15.338;2023-12-28T12:58:11;95054.56;;;3.82;91.07
47636;BME280;33364;50.766;15.338;2023-12-28T13:00:41;95045.69;;;3.83;91.05